Time;durP1;ratioP1;P1;durP2;ratioP2;P2;SDS_P1;SDS_P2;PMS_P1;PMS_P2;Temp;Humidity;BMP_temperature;BMP_pressure;BME280_temperature;BME280_humidity;BME280_pressure;Samples;Min_cycle;Max_cycle;Signal;HPM_P1;HPM_P2
2021/11/22 00:00:46;;;;;;;70.95;45.70;;;;;;;5.91;100.00;98602.16;2112218;28;20237;-70
2021/11/22 00:01:47;;;;;;;68.38;44.40;;;;;;;5.92;100.00;98603.75;2111652;28;20303;-70
2021/11/22 00:02:50;;;;;;;80.18;45.72;;;;;;;5.91;100.00;98605.59;2111484;28;20220;-71
2021/11/22 00:03:51;;;;;;;69.68;44.05;;;;;;;5.90;100.00;98606.66;2111301;28;20261;-70
2021/11/22 00:04:54;;;;;;;75.23;43.50;;;;;;;5.89;100.00;98605.03;2111060;28;20274;-71
2021/11/22 00:05:57;;;;;;;71.80;45.03;;;;;;;5.91;100.00;98607.47;2111553;28;20227;-70
2021/11/22 00:06:59;;;;;;;72.32;44.53;;;;;;;5.90;100.00;98605.81;2103189;28;20225;-70
2021/11/22 00:08:00;;;;;;;71.88;45.20;;;;;;;5.87;100.00;98591.28;2111408;28;20274;-70
2021/11/22 00:09:01;;;;;;;70.63;44.40;;;;;;;5.87;100.00;98590.50;2111394;28;20252;-70
2021/11/22 00:10:04;;;;;;;69.80;44.28;;;;;;;5.91;100.00;98596.88;2111441;28;20221;-70
2021/11/22 00:11:06;;;;;;;71.35;43.45;;;;;;;5.92;100.00;98593.16;2111112;28;20217;-70
2021/11/22 00:12:09;;;;;;;68.40;42.70;;;;;;;5.91;100.00;98591.59;2111368;28;20639;-70
2021/11/22 00:13:11;;;;;;;65.13;44.47;;;;;;;5.93;100.00;98590.22;2110854;28;20303;-70
2021/11/22 00:14:12;;;;;;;72.03;44.30;;;;;;;5.92;100.00;98593.16;2111446;28;20588;-71
2021/11/22 00:15:16;;;;;;;70.03;44.00;;;;;;;5.92;100.00;98595.81;2111001;28;20212;-70
2021/11/22 00:16:17;;;;;;;67.15;42.78;;;;;;;5.91;100.00;98592.38;2111478;28;20299;-70
2021/11/22 00:17:19;;;;;;;70.43;43.93;;;;;;;5.90;100.00;98589.94;2111335;28;20221;-70
2021/11/22 00:18:20;;;;;;;72.68;45.42;;;;;;;5.88;100.00;98586.78;2111264;28;20228;-70
2021/11/22 00:19:23;;;;;;;69.17;45.03;;;;;;;5.89;100.00;98598.97;2111501;28;20220;-70
2021/11/22 00:20:25;;;;;;;70.63;43.17;;;;;;;5.87;100.00;98595.81;2111697;28;20224;-70
2021/11/22 00:21:27;;;;;;;74.35;43.97;;;;;;;5.88;100.00;98602.69;2111110;28;20225;-70
2021/11/22 00:22:27;;;;;;;70.57;44.78;;;;;;;5.90;100.00;98606.66;2102899;28;20567;-71
2021/11/22 00:23:29;;;;;;;76.17;44.57;;;;;;;5.90;100.00;98606.66;2102774;28;20326;-70
2021/11/22 00:24:31;;;;;;;71.50;44.03;;;;;;;5.93;100.00;98605.31;2102921;28;20212;-70
2021/11/22 00:25:32;;;;;;;70.72;45.22;;;;;;;5.90;100.00;98611.13;2111345;28;20217;-70
2021/11/22 00:26:34;;;;;;;73.50;44.00;;;;;;;5.85;100.00;98609.31;2102923;28;20714;-70
2021/11/22 00:27:38;;;;;;;70.32;44.78;;;;;;;5.81;100.00;98607.47;2111358;28;20216;-70
2021/11/22 00:28:51;;;;;;;74.25;43.95;;;;;;;5.83;100.00;98613.31;2110907;28;20712;-70
2021/11/22 00:30:10;;;;;;;68.93;44.05;;;;;;;5.80;100.00;98609.34;2104971;28;20224;-71
2021/11/22 00:31:28;;;;;;;71.47;43.33;;;;;;;5.78;100.00;98618.63;2104971;28;20270;-70
2021/11/22 00:32:35;;;;;;;74.50;45.25;;;;;;;5.76;100.00;98616.25;2112144;28;20589;-70
2021/11/22 00:33:58;;;;;;;73.78;44.72;;;;;;;5.76;100.00;98620.78;2116647;27;20247;-70
2021/11/22 00:35:18;;;;;;;72.50;44.10;;;;;;;5.74;100.00;98617.63;2111794;28;20224;-71
2021/11/22 00:36:19;;;;;;;73.10;43.72;;;;;;;5.74;100.00;98622.91;2111954;28;20587;-70
2021/11/22 00:37:22;;;;;;;78.47;46.05;;;;;;;5.72;100.00;98625.81;2111298;28;20657;-70
2021/11/22 00:38:24;;;;;;;72.70;45.50;;;;;;;5.72;100.00;98630.31;2111026;28;20303;-71
2021/11/22 00:39:25;;;;;;;72.05;44.75;;;;;;;5.75;100.00;98624.50;2111403;28;20598;-70
2021/11/22 00:40:28;;;;;;;69.50;44.00;;;;;;;5.76;100.00;98626.06;2102594;28;20312;-70
2021/11/22 00:41:31;;;;;;;68.57;44.00;;;;;;;5.76;100.00;98626.06;2111359;28;20272;-70
2021/11/22 00:42:33;;;;;;;69.15;43.42;;;;;;;5.78;100.00;98629.22;2111152;28;20234;-71
2021/11/22 00:43:36;;;;;;;70.45;44.10;;;;;;;5.79;100.00;98630.81;2111351;28;20624;-70
2021/11/22 00:44:37;;;;;;;73.72;45.10;;;;;;;5.81;100.00;98636.59;2111632;27;20582;-72
2021/11/22 00:45:40;;;;;;;73.35;45.33;;;;;;;5.81;100.00;98628.66;2111493;28;20229;-70
2021/11/22 00:46:42;;;;;;;72.95;44.00;;;;;;;5.79;100.00;98626.28;2103232;28;20792;-70
2021/11/22 00:47:43;;;;;;;71.82;45.53;;;;;;;5.79;100.00;98631.59;2111140;28;20232;-69
2021/11/22 00:48:47;;;;;;;70.47;44.20;;;;;;;5.80;100.00;98629.72;2102822;28;20296;-70
2021/11/22 00:49:49;;;;;;;66.93;42.60;;;;;;;5.78;100.00;98627.38;2111207;28;20581;-69
2021/11/22 00:50:52;;;;;;;62.53;41.33;;;;;;;5.79;100.00;98631.59;2111992;28;20311;-69
2021/11/22 00:51:53;;;;;;;70.28;43.90;;;;;;;5.81;100.00;98639.25;2111655;28;20232;-70
2021/11/22 00:52:57;;;;;;;70.47;43.37;;;;;;;5.81;100.00;98636.59;2111017;28;20224;-70
2021/11/22 00:53:58;;;;;;;71.72;43.88;;;;;;;5.80;100.00;98642.97;2103211;28;20259;-70
2021/11/22 00:55:02;;;;;;;67.90;44.03;;;;;;;5.82;100.00;98646.13;2110289;28;20552;-70
2021/11/22 00:56:03;;;;;;;70.63;43.78;;;;;;;5.81;100.00;98645.34;2111255;28;20284;-70
2021/11/22 00:57:06;;;;;;;68.45;44.80;;;;;;;5.80;100.00;98637.66;2111928;28;20296;-70
2021/11/22 00:58:08;;;;;;;68.18;42.55;;;;;;;5.80;100.00;98642.97;2110760;28;20246;-71
2021/11/22 00:59:10;;;;;;;67.78;43.72;;;;;;;5.80;100.00;98649.06;2111175;28;20220;-70
2021/11/22 01:00:14;;;;;;;65.10;41.83;;;;;;;5.80;100.00;98640.31;2111854;28;20262;-70
2021/11/22 01:01:16;;;;;;;70.55;43.78;;;;;;;5.81;100.00;98644.53;2111885;28;20225;-70
2021/11/22 01:02:17;;;;;;;73.20;44.90;;;;;;;5.80;100.00;98637.66;2111943;28;20221;-69
2021/11/22 01:03:19;;;;;;;68.53;42.37;;;;;;;5.81;100.00;98645.34;2111163;28;20307;-70
2021/11/22 01:04:20;;;;;;;69.28;43.85;;;;;;;5.80;100.00;98643.75;2111192;28;20221;-70
2021/11/22 01:05:22;;;;;;;65.32;42.55;;;;;;;5.81;100.00;98645.34;2111977;28;20256;-70
2021/11/22 01:06:23;;;;;;;63.60;42.42;;;;;;;5.83;100.00;98639.78;2110779;28;20220;-70
2021/11/22 01:07:25;;;;;;;61.50;41.93;;;;;;;5.82;100.00;98646.13;2102502;28;20246;-70
2021/11/22 01:08:27;;;;;;;64.93;43.50;;;;;;;5.82;100.00;98643.47;2111130;28;20221;-70
2021/11/22 01:09:29;;;;;;;69.00;44.28;;;;;;;5.82;100.00;98640.81;2111057;28;20239;-70
2021/11/22 01:10:31;;;;;;;70.97;43.67;;;;;;;5.81;100.00;98639.25;2103057;28;20232;-70
2021/11/22 01:11:33;;;;;;;67.38;43.40;;;;;;;5.83;100.00;98639.78;2111346;28;20268;-70
2021/11/22 01:12:35;;;;;;;74.60;44.38;;;;;;;5.83;100.00;98643.22;2111987;28;20243;-69
2021/11/22 01:13:37;;;;;;;67.18;43.20;;;;;;;5.83;100.00;98642.44;2111957;28;20225;-69
2021/11/22 01:14:40;;;;;;;70.13;43.97;;;;;;;5.83;100.00;98643.22;2110682;28;20299;-70
2021/11/22 01:15:42;;;;;;;63.00;42.95;;;;;;;5.81;100.00;98644.53;2110974;28;20746;-70
2021/11/22 01:16:43;;;;;;;65.28;43.55;;;;;;;5.80;100.00;98635.81;2111981;28;20276;-70
2021/11/22 01:17:46;;;;;;;71.18;44.17;;;;;;;5.80;100.00;98643.75;2111153;28;20221;-69
2021/11/22 01:18:46;;;;;;;70.10;43.50;;;;;;;5.78;100.00;98640.59;2102470;28;20267;-69
2021/11/22 01:19:51;;;;;;;70.43;44.57;;;;;;;5.80;100.00;98642.97;2102878;28;20226;-70
2021/11/22 01:20:52;;;;;;;66.68;43.65;;;;;;;5.79;100.00;98636.88;2110543;28;20319;-71
2021/11/22 01:21:54;;;;;;;69.17;43.93;;;;;;;5.80;100.00;98642.97;2111053;28;20671;-70
2021/11/22 01:22:57;;;;;;;71.10;44.05;;;;;;;5.79;100.00;98636.09;2111645;28;20277;-70
2021/11/22 01:23:59;;;;;;;64.90;43.40;;;;;;;5.78;100.00;98645.09;2112395;28;20743;-70
2021/11/22 01:25:00;;;;;;;65.85;42.80;;;;;;;5.76;100.00;98639.28;2112693;28;20225;-70
2021/11/22 01:26:02;;;;;;;71.83;43.57;;;;;;;5.75;100.00;98638.50;2112620;28;20220;-70
2021/11/22 01:27:03;;;;;;;70.32;43.25;;;;;;;5.74;100.00;98638.78;2104399;28;20736;-70
2021/11/22 01:28:05;;;;;;;71.03;43.97;;;;;;;5.71;100.00;98642.75;2112695;28;20739;-70
2021/11/22 01:29:07;;;;;;;65.35;43.95;;;;;;;5.70;100.00;98643.03;2113404;28;20266;-70
2021/11/22 01:30:14;;;;;;;69.10;43.63;;;;;;;5.68;100.00;98649.41;2113007;28;20269;-70
2021/11/22 01:31:15;;;;;;;68.53;44.08;;;;;;;5.64;100.00;98637.75;2112741;27;20213;-70
2021/11/22 01:32:17;;;;;;;66.15;43.70;;;;;;;5.65;100.00;98638.56;2104154;28;20718;-70
2021/11/22 01:33:18;;;;;;;65.93;43.60;;;;;;;5.62;100.00;98645.19;2112719;28;20221;-70
2021/11/22 01:34:19;;;;;;;69.53;43.25;;;;;;;5.61;100.00;98648.13;2112876;28;20263;-70
2021/11/22 01:35:21;;;;;;;69.97;44.87;;;;;;;5.58;100.00;98641.53;2104158;28;20221;-70
2021/11/22 01:36:22;;;;;;;72.95;45.08;;;;;;;5.57;100.00;98639.16;2112038;27;20224;-72
2021/11/22 01:37:25;;;;;;;66.05;44.00;;;;;;;5.58;100.00;98646.03;2113233;28;20224;-70
2021/11/22 01:38:26;;;;;;;70.78;45.90;;;;;;;5.53;100.00;98641.53;2113153;27;20236;-69
2021/11/22 01:39:27;;;;;;;72.97;45.50;;;;;;;5.53;100.00;98646.03;2112405;28;20283;-70
2021/11/22 01:40:28;;;;;;;69.82;44.25;;;;;;;5.50;100.00;98643.94;2112446;28;20714;-70
2021/11/22 01:41:30;;;;;;;70.77;46.03;;;;;;;5.50;100.00;98649.25;2113407;27;20547;-70
2021/11/22 01:42:31;;;;;;;74.57;46.08;;;;;;;5.47;100.00;98655.06;2113208;28;20269;-70
2021/11/22 01:43:33;;;;;;;76.47;45.10;;;;;;;5.46;100.00;98648.19;2112510;28;20216;-71
2021/11/22 01:44:37;;;;;;;70.47;45.80;;;;;;;5.44;100.00;98651.09;2112623;28;20216;-70
2021/11/22 01:45:41;;;;;;;72.30;45.83;;;;;;;5.45;100.00;98650.03;2112710;27;20323;-70
2021/11/22 01:46:41;;;;;;;71.32;44.88;;;;;;;5.44;100.00;98650.31;2113148;27;27409;-69
2021/11/22 01:47:44;;;;;;;72.77;45.37;;;;;;;5.42;100.00;98641.88;2112438;28;20236;-69
2021/11/22 01:48:45;;;;;;;71.03;44.00;;;;;;;5.39;100.00;98641.34;2112475;28;20447;-70
2021/11/22 01:49:47;;;;;;;73.23;43.43;;;;;;;5.35;100.00;98639.50;2113199;28;20205;-69
2021/11/22 01:50:49;;;;;;;69.60;43.60;;;;;;;5.35;100.00;98647.44;2112411;28;21036;-70
2021/11/22 01:51:51;;;;;;;72.55;46.47;;;;;;;5.32;100.00;98643.50;2104454;28;20249;-70
2021/11/22 01:52:53;;;;;;;68.57;44.78;;;;;;;5.31;100.00;98644.56;2111962;28;20232;-74
2021/11/22 01:53:54;;;;;;;73.32;45.30;;;;;;;5.30;100.00;98650.09;2112487;28;20235;-69
2021/11/22 01:54:56;;;;;;;71.20;45.07;;;;;;;5.29;100.00;98648.53;2112216;28;20269;-70
2021/11/22 01:55:57;;;;;;;74.43;45.78;;;;;;;5.25;100.00;98644.84;2103907;28;20300;-69
2021/11/22 01:56:59;;;;;;;76.97;46.00;;;;;;;5.26;100.00;98643.78;2112444;28;20274;-70
2021/11/22 01:58:01;;;;;;;78.50;47.33;;;;;;;5.21;100.00;98641.97;2113259;28;20764;-70
2021/11/22 01:59:03;;;;;;;80.82;47.47;;;;;;;5.19;100.00;98644.06;2113120;27;20225;-70
2021/11/22 02:00:06;;;;;;;70.30;45.25;;;;;;;5.18;100.00;98647.78;2112272;27;20579;-70
2021/11/22 02:01:15;;;;;;;76.75;46.60;;;;;;;5.15;100.00;98650.19;2112077;27;20231;-70
2021/11/22 02:02:16;;;;;;;78.18;47.75;;;;;;;5.08;100.00;98642.53;2112366;28;20242;-70
2021/11/22 02:03:19;;;;;;;76.33;47.87;;;;;;;5.08;100.00;98647.81;2112359;28;20756;-70
2021/11/22 02:04:19;;;;;;;77.72;48.97;;;;;;;5.07;100.00;98656.81;2112190;28;20598;-69
2021/11/22 02:05:24;;;;;;;83.50;47.77;;;;;;;5.06;100.00;98655.25;2103815;28;20248;-69
2021/11/22 02:06:25;;;;;;;76.75;47.28;;;;;;;5.09;100.00;98655.47;2103865;28;20266;-69
2021/11/22 02:07:27;;;;;;;80.68;48.38;;;;;;;5.09;100.00;98655.47;2103847;28;20221;-69
2021/11/22 02:08:28;;;;;;;78.95;47.38;;;;;;;5.08;100.00;98661.03;2103893;28;20647;-70
2021/11/22 02:09:30;;;;;;;80.10;47.47;;;;;;;5.08;100.00;98667.13;2112358;28;20221;-70
2021/11/22 02:10:31;;;;;;;84.93;50.17;;;;;;;5.10;100.00;98666.84;2112203;28;20726;-70
2021/11/22 02:11:36;;;;;;;79.50;47.87;;;;;;;5.07;100.00;98670.81;2103885;28;20567;-70
2021/11/22 02:12:38;;;;;;;79.95;48.35;;;;;;;5.08;100.00;98674.25;2103983;28;20873;-70
2021/11/22 02:13:39;;;;;;;75.30;48.90;;;;;;;5.12;100.00;98664.72;2112316;28;20220;-70
2021/11/22 02:14:40;;;;;;;77.90;47.80;;;;;;;5.10;100.00;98669.50;2112210;28;20243;-70
2021/11/22 02:15:43;;;;;;;80.37;48.80;;;;;;;5.10;100.00;98665.00;2112098;28;20277;-70
2021/11/22 02:16:45;;;;;;;84.95;49.00;;;;;;;5.14;100.00;98669.75;2112952;28;20619;-69
2021/11/22 02:17:48;;;;;;;86.38;49.55;;;;;;;5.14;100.00;98662.63;2112147;28;20220;-70
2021/11/22 02:18:50;;;;;;;79.95;48.67;;;;;;;5.16;100.00;98662.34;2104140;28;20233;-70
2021/11/22 02:20:02;;;;;;;81.38;50.53;;;;;;;5.15;100.00;98668.69;2103611;28;20283;-70
2021/11/22 02:21:04;;;;;;;80.80;47.70;;;;;;;5.17;100.00;98667.34;2111960;28;20315;-70
2021/11/22 02:22:05;;;;;;;82.72;49.28;;;;;;;5.18;100.00;98668.94;2112262;28;20286;-69
2021/11/22 02:23:09;;;;;;;78.22;47.67;;;;;;;5.19;100.00;98669.72;2112183;28;20227;-70
2021/11/22 02:24:10;;;;;;;85.45;50.20;;;;;;;5.19;100.00;98669.72;2112593;28;20217;-70
2021/11/22 02:25:14;;;;;;;84.32;50.40;;;;;;;5.21;100.00;98672.88;2112832;27;20229;-70
2021/11/22 02:26:15;;;;;;;83.88;50.03;;;;;;;5.20;100.00;98672.09;2112824;28;20220;-70
2021/11/22 02:27:19;;;;;;;79.07;47.53;;;;;;;5.21;100.00;98672.88;2112924;27;20278;-70
2021/11/22 02:28:20;;;;;;;83.22;49.47;;;;;;;5.23;100.00;98670.78;2112490;27;20458;-70
2021/11/22 02:29:22;;;;;;;81.97;49.08;;;;;;;5.21;100.00;98665.78;2103701;28;20242;-70
2021/11/22 02:30:29;;;;;;;84.38;49.40;;;;;;;5.23;100.00;98668.94;2102805;28;20225;-71
2021/11/22 02:31:31;;;;;;;81.63;49.65;;;;;;;5.23;100.00;98671.56;2111972;28;20337;-70
2021/11/22 02:32:32;;;;;;;84.57;49.78;;;;;;;5.23;100.00;98668.94;2112187;28;20232;-70
2021/11/22 02:33:34;;;;;;;83.10;49.00;;;;;;;5.23;100.00;98671.56;2112157;28;20240;-70
2021/11/22 02:34:35;;;;;;;91.40;51.17;;;;;;;5.22;100.00;98670.00;2112155;28;20447;-70
2021/11/22 02:35:40;;;;;;;86.38;49.90;;;;;;;5.21;100.00;98667.59;2111894;28;20703;-71
2021/11/22 02:36:41;;;;;;;88.28;51.33;;;;;;;5.22;100.00;98670.00;2103546;28;20711;-70
2021/11/22 02:37:43;;;;;;;83.83;49.97;;;;;;;5.22;100.00;98664.72;2112134;28;20582;-71
2021/11/22 02:38:44;;;;;;;81.35;48.83;;;;;;;5.21;100.00;98668.41;2112841;28;20224;-70
2021/11/22 02:39:46;;;;;;;82.45;48.55;;;;;;;5.22;100.00;98675.28;2112091;28;20553;-70
2021/11/22 02:40:48;;;;;;;85.50;49.90;;;;;;;5.22;100.00;98675.28;2103791;28;20719;-69
2021/11/22 02:41:50;;;;;;;86.53;51.28;;;;;;;5.20;100.00;98677.38;2112203;28;20703;-69
2021/11/22 02:42:52;;;;;;;88.07;52.15;;;;;;;5.19;100.00;98669.72;2112211;27;20319;-69
2021/11/22 02:43:57;;;;;;;82.30;50.70;;;;;;;5.22;100.00;98685.06;2111657;28;20221;-70
2021/11/22 02:44:58;;;;;;;88.57;51.40;;;;;;;5.20;100.00;98673.94;2112912;28;20235;-69
2021/11/22 02:46:00;;;;;;;90.13;52.72;;;;;;;5.20;100.00;98684.53;2111909;28;20217;-70
2021/11/22 02:47:02;;;;;;;93.90;51.95;;;;;;;5.18;100.00;98679.50;2103620;28;20274;-69
2021/11/22 02:48:05;;;;;;;83.97;50.28;;;;;;;5.21;100.00;98694.03;2112201;28;20237;-69
2021/11/22 02:49:05;;;;;;;82.40;49.97;;;;;;;5.20;100.00;98690.59;2112115;28;20734;-70
2021/11/22 02:50:11;;;;;;;88.30;52.30;;;;;;;5.21;100.00;98696.69;2112187;28;20567;-70
2021/11/22 02:51:14;;;;;;;88.55;51.75;;;;;;;5.18;100.00;98689.31;2112356;28;20231;-70
2021/11/22 02:52:15;;;;;;;91.85;49.30;;;;;;;5.20;100.00;98700.41;2112711;28;20221;-70
2021/11/22 02:53:17;;;;;;;78.17;49.87;;;;;;;5.18;100.00;98692.72;2112103;27;20244;-70
2021/11/22 02:54:17;;;;;;;85.53;51.30;;;;;;;5.19;100.00;98694.31;2103469;28;20221;-69
2021/11/22 02:55:23;;;;;;;86.68;51.45;;;;;;;5.18;100.00;98694.59;2111799;28;20229;-71
2021/11/22 02:56:28;;;;;;;81.30;49.67;;;;;;;5.16;100.00;98691.44;2110875;28;20616;-70
2021/11/22 02:57:30;;;;;;;83.68;50.67;;;;;;;5.14;100.00;98696.19;2103982;28;20586;-69
2021/11/22 02:58:32;;;;;;;86.05;51.58;;;;;;;5.14;100.00;98688.28;2111954;28;20236;-69
2021/11/22 02:59:33;;;;;;;88.78;51.17;;;;;;;5.14;100.00;98693.56;2112633;28;20296;-69
2021/11/22 03:00:36;;;;;;;87.60;52.43;;;;;;;5.15;100.00;98700.44;2112723;28;20225;-70
2021/11/22 03:01:38;;;;;;;86.10;51.65;;;;;;;5.15;100.00;98695.13;2111296;28;20228;-73
2021/11/22 03:02:40;;;;;;;84.60;51.28;;;;;;;5.14;100.00;98690.91;2111697;28;20307;-69
2021/11/22 03:03:42;;;;;;;83.38;49.95;;;;;;;5.13;100.00;98698.06;2111722;28;20633;-70
2021/11/22 03:04:43;;;;;;;78.47;48.40;;;;;;;5.08;100.00;98685.63;2103691;28;20317;-69
2021/11/22 03:05:45;;;;;;;82.93;49.55;;;;;;;5.14;100.00;98698.84;2103484;28;20222;-70
2021/11/22 03:06:47;;;;;;;85.50;49.80;;;;;;;5.11;100.00;98700.94;2111945;27;20694;-69
2021/11/22 03:07:52;;;;;;;84.15;51.75;;;;;;;5.11;100.00;98703.59;2112778;27;20694;-70
2021/11/22 03:08:53;;;;;;;85.90;49.35;;;;;;;5.15;100.00;98703.06;2111377;28;20228;-70
2021/11/22 03:09:57;;;;;;;80.30;48.33;;;;;;;5.14;100.00;98694.34;2111676;28;20259;-69
2021/11/22 03:10:58;;;;;;;83.05;50.60;;;;;;;5.13;100.00;98698.06;2111704;28;20221;-70
2021/11/22 03:12:01;;;;;;;82.80;50.10;;;;;;;5.12;100.00;98691.16;2111891;28;20265;-70
2021/11/22 03:13:02;;;;;;;81.57;49.35;;;;;;;5.09;100.00;98692.50;2112688;28;20292;-69
2021/11/22 03:14:04;;;;;;;89.90;50.80;;;;;;;5.10;100.00;98699.38;2112435;27;20228;-70
2021/11/22 03:15:09;;;;;;;76.72;48.50;;;;;;;5.06;100.00;98689.59;2112262;28;20572;-70
2021/11/22 03:16:13;;;;;;;76.43;47.40;;;;;;;5.08;100.00;98706.00;2112113;27;20581;-69
2021/11/22 03:17:14;;;;;;;78.25;46.85;;;;;;;5.06;100.00;98694.91;2111691;28;20308;-69
2021/11/22 03:18:15;;;;;;;85.03;50.43;;;;;;;5.00;100.00;98694.09;2103194;28;20225;-70
2021/11/22 03:19:16;;;;;;;77.63;49.22;;;;;;;5.04;100.00;98697.03;2111926;28;20220;-70
2021/11/22 03:20:20;;;;;;;74.50;47.93;;;;;;;5.01;100.00;98692.25;2111629;28;20221;-70
2021/11/22 03:21:20;;;;;;;79.68;47.70;;;;;;;5.01;100.00;98695.69;2111666;28;20233;-70
2021/11/22 03:22:24;;;;;;;81.87;48.13;;;;;;;4.97;100.00;98697.28;2111688;28;20237;-70
2021/11/22 03:23:27;;;;;;;80.22;47.42;;;;;;;4.98;100.00;98693.59;2111208;28;20232;-70
2021/11/22 03:24:29;;;;;;;82.28;49.53;;;;;;;4.96;100.00;98692.28;2112477;28;20220;-69
2021/11/22 03:25:31;;;;;;;80.00;48.15;;;;;;;4.95;100.00;98694.13;2111568;28;20224;-71
2021/11/22 03:26:33;;;;;;;84.47;50.25;;;;;;;4.92;100.00;98704.44;2111610;28;20224;-70
2021/11/22 03:27:34;;;;;;;80.60;49.58;;;;;;;4.89;100.00;98702.34;2111507;28;20224;-69
2021/11/22 03:28:36;;;;;;;80.50;47.80;;;;;;;4.87;100.00;98704.47;2111567;28;20216;-69
2021/11/22 03:29:39;;;;;;;77.05;48.30;;;;;;;4.83;100.00;98706.81;2111449;28;20225;-71
2021/11/22 03:30:40;;;;;;;84.75;50.30;;;;;;;4.81;100.00;98711.59;2112327;28;20229;-70
2021/11/22 03:31:42;;;;;;;82.70;48.70;;;;;;;4.79;100.00;98709.22;2112154;28;20244;-70
2021/11/22 03:32:43;;;;;;;80.45;48.25;;;;;;;4.78;100.00;98712.94;2112544;28;20228;-70
2021/11/22 03:33:47;;;;;;;83.80;49.10;;;;;;;4.77;100.00;98711.31;2111470;28;20308;-69
2021/11/22 03:34:48;;;;;;;80.38;47.45;;;;;;;4.74;100.00;98714.50;2103489;28;20271;-70
2021/11/22 03:35:54;;;;;;;84.60;49.72;;;;;;;4.74;100.00;98717.16;2111650;28;20216;-70
2021/11/22 03:37:01;;;;;;;81.18;50.22;;;;;;;4.72;100.00;98727.19;2111128;28;20671;-69
2021/11/22 03:38:05;;;;;;;85.65;49.63;;;;;;;4.74;100.00;98721.63;2111706;28;20212;-69
2021/11/22 03:39:11;;;;;;;77.95;48.47;;;;;;;4.75;100.00;98723.22;2111666;28;20224;-69
2021/11/22 03:40:13;;;;;;;77.13;48.65;;;;;;;4.74;100.00;98724.28;2111281;28;20651;-70
2021/11/22 03:41:16;;;;;;;84.53;50.47;;;;;;;4.75;100.00;98733.78;2111362;28;20217;-69
2021/11/22 03:42:18;;;;;;;88.55;51.05;;;;;;;4.76;100.00;98730.88;2103548;28;20249;-70
2021/11/22 03:43:27;;;;;;;81.68;50.28;;;;;;;4.77;100.00;98737.75;2111539;28;20228;-69
2021/11/22 03:44:32;;;;;;;90.82;50.30;;;;;;;4.77;100.00;98734.31;2111104;28;20220;-70
2021/11/22 03:45:37;;;;;;;84.68;51.58;;;;;;;4.77;100.00;98729.03;2111193;28;20696;-70
2021/11/22 03:46:39;;;;;;;86.65;51.30;;;;;;;4.77;100.00;98737.75;2110937;28;20588;-70
2021/11/22 03:47:40;;;;;;;83.55;51.45;;;;;;;4.79;100.00;98729.56;2111488;28;20225;-71
2021/11/22 03:48:42;;;;;;;92.33;50.93;;;;;;;4.80;100.00;98737.22;2111406;28;20224;-71
2021/11/22 03:49:43;;;;;;;87.85;52.67;;;;;;;4.81;100.00;98732.75;2111407;28;20303;-70
2021/11/22 03:50:47;;;;;;;84.13;51.37;;;;;;;4.81;100.00;98738.03;2111386;28;20671;-70
2021/11/22 03:51:48;;;;;;;84.95;49.83;;;;;;;4.80;100.00;98736.44;2111629;28;20216;-71
2021/11/22 03:52:50;;;;;;;84.75;51.92;;;;;;;4.82;100.00;98729.03;2112292;28;20289;-70
2021/11/22 03:53:52;;;;;;;85.82;50.38;;;;;;;4.84;100.00;98740.13;2112203;28;20232;-71
2021/11/22 03:54:54;;;;;;;93.60;52.08;;;;;;;4.82;100.00;98739.59;2111902;28;20699;-71
2021/11/22 03:55:55;;;;;;;87.00;51.95;;;;;;;4.83;100.00;98736.69;2111305;28;20224;-70
2021/11/22 03:57:00;;;;;;;84.33;50.90;;;;;;;4.83;100.00;98738.53;2102900;28;20249;-71
2021/11/22 03:58:01;;;;;;;93.50;51.22;;;;;;;4.83;100.00;98741.97;2103780;28;20679;-71
2021/11/22 03:59:04;;;;;;;79.75;50.35;;;;;;;4.83;100.00;98751.75;2103376;28;20221;-70
2021/11/22 04:00:06;;;;;;;86.20;50.75;;;;;;;4.83;100.00;98747.25;2111530;28;20255;-71
2021/11/22 04:01:08;;;;;;;86.15;51.60;;;;;;;4.85;100.00;98746.19;2111877;28;20312;-72
2021/11/22 04:02:09;;;;;;;85.68;52.92;;;;;;;4.80;100.00;98734.59;2111063;28;20307;-70
2021/11/22 04:03:10;;;;;;;86.27;51.07;;;;;;;4.83;100.00;98738.53;2111482;28;20225;-70
2021/11/22 04:04:11;;;;;;;86.18;51.95;;;;;;;4.83;100.00;98743.81;2112208;28;20225;-70
2021/11/22 04:05:16;;;;;;;88.40;53.47;;;;;;;4.85;100.00;98744.34;2111285;28;20239;-70
2021/11/22 04:06:17;;;;;;;84.25;51.45;;;;;;;4.83;100.00;98747.25;2111577;28;20216;-70
2021/11/22 04:07:19;;;;;;;82.80;50.67;;;;;;;4.83;100.00;98746.47;2111557;28;20687;-70
2021/11/22 04:08:20;;;;;;;87.32;51.63;;;;;;;4.86;100.00;98755.72;2102990;28;20264;-70
2021/11/22 04:09:23;;;;;;;83.88;51.25;;;;;;;4.83;100.00;98751.75;2103181;28;20217;-71
2021/11/22 04:10:24;;;;;;;90.07;50.33;;;;;;;4.83;100.00;98754.41;2102718;28;20225;-71
2021/11/22 04:11:29;;;;;;;88.93;52.17;;;;;;;4.83;100.00;98752.56;2103180;28;20221;-70
2021/11/22 04:12:30;;;;;;;89.47;52.00;;;;;;;4.84;100.00;98758.63;2103447;28;20256;-70
2021/11/22 04:13:32;;;;;;;88.40;51.17;;;;;;;4.82;100.00;98750.97;2111169;28;20640;-71
2021/11/22 04:14:33;;;;;;;87.70;53.03;;;;;;;4.82;100.00;98752.81;2111126;28;20234;-71
2021/11/22 04:15:35;;;;;;;84.57;50.80;;;;;;;4.85;100.00;98759.41;2111269;28;20225;-71
2021/11/22 04:16:37;;;;;;;84.55;51.53;;;;;;;4.84;100.00;98755.97;2112084;28;20220;-70
2021/11/22 04:17:38;;;;;;;82.95;51.90;;;;;;;4.82;100.00;98753.63;2110841;28;20233;-70
2021/11/22 04:18:42;;;;;;;86.13;51.53;;;;;;;4.85;100.00;98754.13;2102756;28;20225;-70
2021/11/22 04:19:47;;;;;;;86.00;51.90;;;;;;;4.83;100.00;98755.19;2103305;28;20248;-70
2021/11/22 04:20:49;;;;;;;87.55;50.90;;;;;;;4.83;100.00;98757.84;2111422;28;20702;-70
2021/11/22 04:21:50;;;;;;;86.78;50.90;;;;;;;4.84;100.00;98763.91;2111229;28;20233;-70
2021/11/22 04:22:52;;;;;;;82.87;49.83;;;;;;;4.82;100.00;98758.09;2102986;28;20222;-71
2021/11/22 04:23:55;;;;;;;81.32;49.67;;;;;;;4.85;100.00;98754.13;2110997;28;20236;-71
2021/11/22 04:24:58;;;;;;;82.97;49.92;;;;;;;4.84;100.00;98753.34;2112153;28;20232;-70
2021/11/22 04:25:59;;;;;;;83.97;51.20;;;;;;;4.86;100.00;98747.78;2111526;28;20224;-70
2021/11/22 04:27:02;;;;;;;86.88;50.20;;;;;;;4.83;100.00;98751.75;2102817;28;20221;-70
2021/11/22 04:28:03;;;;;;;82.75;50.67;;;;;;;4.84;100.00;98750.69;2111448;28;20216;-70
2021/11/22 04:29:05;;;;;;;86.95;50.35;;;;;;;4.85;100.00;98759.41;2111217;28;20232;-70
2021/11/22 04:30:10;;;;;;;84.30;50.30;;;;;;;4.84;100.00;98753.34;2102919;28;20642;-71
2021/11/22 04:31:12;;;;;;;84.40;51.30;;;;;;;4.85;100.00;98757.56;2111047;28;20579;-70
2021/11/22 04:32:16;;;;;;;82.00;50.75;;;;;;;4.85;100.00;98764.72;2111964;28;20224;-70
2021/11/22 04:33:19;;;;;;;81.03;49.10;;;;;;;4.87;100.00;98765.25;2111238;28;20303;-72
2021/11/22 04:34:20;;;;;;;82.00;49.53;;;;;;;4.87;100.00;98768.69;2103269;28;20222;-71
2021/11/22 04:35:22;;;;;;;82.13;49.40;;;;;;;4.86;100.00;98771.56;2111322;28;20308;-70
2021/11/22 04:36:24;;;;;;;84.53;50.60;;;;;;;4.90;100.00;98783.22;2110732;28;20225;-70
2021/11/22 04:37:27;;;;;;;84.63;50.67;;;;;;;4.87;100.00;98778.47;2111149;28;20228;-70
2021/11/22 04:38:29;;;;;;;84.03;49.88;;;;;;;4.91;100.00;98777.66;2111211;28;20240;-70
2021/11/22 04:39:32;;;;;;;78.88;48.50;;;;;;;4.93;100.00;98780.81;2112160;28;20216;-70
2021/11/22 04:40:37;;;;;;;80.43;49.55;;;;;;;4.95;100.00;98785.84;2111306;28;20228;-70
2021/11/22 04:41:37;;;;;;;82.05;48.30;;;;;;;4.95;100.00;98781.38;2110890;28;20224;-70
2021/11/22 04:42:39;;;;;;;79.10;48.70;;;;;;;4.96;100.00;98782.16;2111503;28;20225;-70
2021/11/22 04:43:40;;;;;;;75.43;48.10;;;;;;;4.97;100.00;98781.09;2111192;28;20575;-71
2021/11/22 04:44:42;;;;;;;86.20;49.30;;;;;;;4.97;100.00;98776.59;2102761;28;20248;-70
2021/11/22 04:45:43;;;;;;;81.45;49.85;;;;;;;5.00;100.00;98777.91;2111249;28;20216;-70
2021/11/22 04:46:45;;;;;;;81.03;48.25;;;;;;;5.01;100.00;98775.00;2111307;28;20240;-70
2021/11/22 04:47:48;;;;;;;82.82;48.47;;;;;;;5.02;100.00;98773.16;2112048;28;20227;-70